sensor_id;sensor_type;location;lat;lon;timestamp;P1;durP1;ratioP1;P2;durP2;ratioP2
7939;SDS011;4015;48.888;9.226;2023-01-10T00:00:05;2.00;;;1.00;;
7939;SDS011;4015;48.888;9.226;2023-01-10T00:02:31;0.90;;;0.90;;
7939;SDS011;4015;48.888;9.226;2023-01-10T00:04:56;0.87;;;0.87;;
7939;SDS011;4015;48.888;9.226;2023-01-10T00:07:21;2.43;;;1.40;;
7939;SDS011;4015;48.888;9.226;2023-01-10T00:09:47;1.00;;;1.00;;
7939;SDS011;4015;48.888;9.226;2023-01-10T00:12:12;1.00;;;0.90;;
7939;SDS011;4015;48.888;9.226;2023-01-10T00:14:56;1.37;;;1.20;;
7939;SDS011;4015;48.888;9.226;2023-01-10T00:17:21;1.83;;;1.30;;
7939;SDS011;4015;48.888;9.226;2023-01-10T00:19:46;2.10;;;1.33;;
7939;SDS011;4015;48.888;9.226;2023-01-10T00:22:12;2.20;;;1.43;;
7939;SDS011;4015;48.888;9.226;2023-01-10T00:24:37;2.33;;;1.50;;
7939;SDS011;4015;48.888;9.226;2023-01-10T00:27:03;1.87;;;1.53;;
7939;SDS011;4015;48.888;9.226;2023-01-10T00:29:29;1.60;;;1.40;;
7939;SDS011;4015;48.888;9.226;2023-01-10T00:31:59;2.90;;;1.80;;
7939;SDS011;4015;48.888;9.226;2023-01-10T00:34:24;3.20;;;1.90;;
7939;SDS011;4015;48.888;9.226;2023-01-10T00:36:50;2.30;;;2.10;;
7939;SDS011;4015;48.888;9.226;2023-01-10T00:39:16;4.40;;;1.83;;
7939;SDS011;4015;48.888;9.226;2023-01-10T00:41:44;1.60;;;1.50;;
7939;SDS011;4015;48.888;9.226;2023-01-10T00:44:28;2.90;;;2.07;;
7939;SDS011;4015;48.888;9.226;2023-01-10T00:46:54;2.47;;;2.17;;
7939;SDS011;4015;48.888;9.226;2023-01-10T00:49:19;2.53;;;1.90;;
7939;SDS011;4015;48.888;9.226;2023-01-10T00:51:44;2.23;;;1.80;;
7939;SDS011;4015;48.888;9.226;2023-01-10T00:54:10;2.50;;;1.93;;
7939;SDS011;4015;48.888;9.226;2023-01-10T00:56:37;2.20;;;2.00;;
7939;SDS011;4015;48.888;9.226;2023-01-10T00:59:02;2.60;;;2.40;;
7939;SDS011;4015;48.888;9.226;2023-01-10T01:01:28;3.27;;;1.83;;
7939;SDS011;4015;48.888;9.226;2023-01-10T01:03:53;4.00;;;2.07;;
7939;SDS011;4015;48.888;9.226;2023-01-10T01:06:19;3.40;;;2.03;;
7939;SDS011;4015;48.888;9.226;2023-01-10T01:08:44;5.97;;;2.67;;
7939;SDS011;4015;48.888;9.226;2023-01-10T01:11:09;2.57;;;2.10;;
7939;SDS011;4015;48.888;9.226;2023-01-10T01:13:34;5.43;;;2.20;;
7939;SDS011;4015;48.888;9.226;2023-01-10T01:16:00;2.43;;;2.17;;
7939;SDS011;4015;48.888;9.226;2023-01-10T01:18:26;4.23;;;2.27;;
7939;SDS011;4015;48.888;9.226;2023-01-10T01:20:52;2.37;;;2.03;;
7939;SDS011;4015;48.888;9.226;2023-01-10T01:23:19;5.63;;;3.00;;
7939;SDS011;4015;48.888;9.226;2023-01-10T01:25:44;6.07;;;2.37;;
7939;SDS011;4015;48.888;9.226;2023-01-10T01:28:12;2.90;;;2.00;;
7939;SDS011;4015;48.888;9.226;2023-01-10T01:30:37;2.43;;;1.83;;
7939;SDS011;4015;48.888;9.226;2023-01-10T01:33:03;2.03;;;1.93;;
7939;SDS011;4015;48.888;9.226;2023-01-10T01:35:29;2.10;;;1.90;;
7939;SDS011;4015;48.888;9.226;2023-01-10T01:37:54;4.90;;;1.87;;
7939;SDS011;4015;48.888;9.226;2023-01-10T01:40:20;1.90;;;1.60;;
7939;SDS011;4015;48.888;9.226;2023-01-10T01:42:46;2.03;;;1.93;;
7939;SDS011;4015;48.888;9.226;2023-01-10T01:55:50;1.43;;;1.33;;
7939;SDS011;4015;48.888;9.226;2023-01-10T01:58:20;1.40;;;1.30;;
7939;SDS011;4015;48.888;9.226;2023-01-10T02:00:51;1.53;;;1.30;;
7939;SDS011;4015;48.888;9.226;2023-01-10T02:03:16;1.60;;;1.43;;
7939;SDS011;4015;48.888;9.226;2023-01-10T02:05:42;1.50;;;1.40;;
7939;SDS011;4015;48.888;9.226;2023-01-10T02:08:09;1.77;;;1.30;;
7939;SDS011;4015;48.888;9.226;2023-01-10T02:13:26;1.50;;;1.40;;
7939;SDS011;4015;48.888;9.226;2023-01-10T02:15:52;1.20;;;1.10;;
7939;SDS011;4015;48.888;9.226;2023-01-10T02:18:17;1.83;;;1.63;;
7939;SDS011;4015;48.888;9.226;2023-01-10T02:26:44;1.60;;;1.20;;
7939;SDS011;4015;48.888;9.226;2023-01-10T02:41:08;2.03;;;1.87;;
7939;SDS011;4015;48.888;9.226;2023-01-10T02:43:45;1.80;;;1.50;;
7939;SDS011;4015;48.888;9.226;2023-01-10T02:46:15;1.80;;;1.70;;
7939;SDS011;4015;48.888;9.226;2023-01-10T02:48:48;4.00;;;1.57;;
7939;SDS011;4015;48.888;9.226;2023-01-10T02:51:20;2.83;;;1.70;;
7939;SDS011;4015;48.888;9.226;2023-01-10T02:53:49;2.03;;;1.80;;
7939;SDS011;4015;48.888;9.226;2023-01-10T03:10:24;2.80;;;2.10;;
7939;SDS011;4015;48.888;9.226;2023-01-10T03:12:30;1.50;;;1.40;;
7939;SDS011;4015;48.888;9.226;2023-01-10T03:15:01;1.77;;;1.50;;
7939;SDS011;4015;48.888;9.226;2023-01-10T03:17:30;2.47;;;1.70;;
7939;SDS011;4015;48.888;9.226;2023-01-10T03:19:57;1.87;;;1.60;;
7939;SDS011;4015;48.888;9.226;2023-01-10T03:22:26;3.30;;;1.60;;
7939;SDS011;4015;48.888;9.226;2023-01-10T03:24:55;3.40;;;1.77;;
7939;SDS011;4015;48.888;9.226;2023-01-10T03:27:26;5.57;;;1.77;;
7939;SDS011;4015;48.888;9.226;2023-01-10T03:32:30;1.93;;;1.30;;
7939;SDS011;4015;48.888;9.226;2023-01-10T03:34:57;1.90;;;1.60;;
7939;SDS011;4015;48.888;9.226;2023-01-10T03:40:18;1.90;;;1.80;;
7939;SDS011;4015;48.888;9.226;2023-01-10T03:42:55;4.93;;;2.30;;
7939;SDS011;4015;48.888;9.226;2023-01-10T03:45:45;8.90;;;1.90;;
7939;SDS011;4015;48.888;9.226;2023-01-10T03:48:18;6.30;;;1.83;;
7939;SDS011;4015;48.888;9.226;2023-01-10T03:50:50;6.00;;;1.97;;
7939;SDS011;4015;48.888;9.226;2023-01-10T03:53:16;2.93;;;2.00;;
7939;SDS011;4015;48.888;9.226;2023-01-10T03:55:41;3.40;;;2.80;;
7939;SDS011;4015;48.888;9.226;2023-01-10T03:58:09;4.03;;;2.40;;
7939;SDS011;4015;48.888;9.226;2023-01-10T04:00:34;3.77;;;2.23;;
7939;SDS011;4015;48.888;9.226;2023-01-10T04:02:59;6.63;;;2.13;;
7939;SDS011;4015;48.888;9.226;2023-01-10T04:05:25;5.40;;;2.57;;
7939;SDS011;4015;48.888;9.226;2023-01-10T04:07:51;5.10;;;2.30;;
7939;SDS011;4015;48.888;9.226;2023-01-10T04:10:16;3.00;;;2.00;;
7939;SDS011;4015;48.888;9.226;2023-01-10T04:12:42;3.67;;;2.30;;
7939;SDS011;4015;48.888;9.226;2023-01-10T04:15:07;5.27;;;2.77;;
7939;SDS011;4015;48.888;9.226;2023-01-10T04:17:33;4.30;;;2.30;;
7939;SDS011;4015;48.888;9.226;2023-01-10T04:19:59;3.73;;;2.07;;
7939;SDS011;4015;48.888;9.226;2023-01-10T04:22:24;5.40;;;2.50;;
7939;SDS011;4015;48.888;9.226;2023-01-10T04:24:49;5.70;;;2.50;;
7939;SDS011;4015;48.888;9.226;2023-01-10T04:27:16;4.83;;;1.90;;
7939;SDS011;4015;48.888;9.226;2023-01-10T04:29:41;4.83;;;2.27;;
7939;SDS011;4015;48.888;9.226;2023-01-10T04:32:07;2.53;;;2.00;;
7939;SDS011;4015;48.888;9.226;2023-01-10T04:34:32;2.73;;;1.73;;
7939;SDS011;4015;48.888;9.226;2023-01-10T04:36:58;3.60;;;2.33;;
7939;SDS011;4015;48.888;9.226;2023-01-10T04:39:23;6.77;;;2.00;;
7939;SDS011;4015;48.888;9.226;2023-01-10T04:41:48;3.27;;;2.10;;
7939;SDS011;4015;48.888;9.226;2023-01-10T04:44:14;7.43;;;2.50;;
7939;SDS011;4015;48.888;9.226;2023-01-10T04:46:39;8.10;;;2.60;;
7939;SDS011;4015;48.888;9.226;2023-01-10T04:49:04;3.77;;;2.50;;
7939;SDS011;4015;48.888;9.226;2023-01-10T04:51:30;4.67;;;2.60;;
7939;SDS011;4015;48.888;9.226;2023-01-10T04:53:55;5.73;;;2.87;;
7939;SDS011;4015;48.888;9.226;2023-01-10T04:56:21;5.43;;;2.90;;
7939;SDS011;4015;48.888;9.226;2023-01-10T04:58:47;7.03;;;3.43;;
7939;SDS011;4015;48.888;9.226;2023-01-10T05:01:18;10.03;;;2.67;;
7939;SDS011;4015;48.888;9.226;2023-01-10T05:03:50;8.37;;;2.93;;
7939;SDS011;4015;48.888;9.226;2023-01-10T05:06:17;9.07;;;2.63;;
7939;SDS011;4015;48.888;9.226;2023-01-10T05:08:44;6.17;;;2.70;;
7939;SDS011;4015;48.888;9.226;2023-01-10T05:11:10;5.30;;;2.80;;
7939;SDS011;4015;48.888;9.226;2023-01-10T05:13:35;9.77;;;3.37;;
7939;SDS011;4015;48.888;9.226;2023-01-10T05:16:01;6.77;;;2.40;;
7939;SDS011;4015;48.888;9.226;2023-01-10T05:18:26;10.67;;;3.47;;
7939;SDS011;4015;48.888;9.226;2023-01-10T05:20:58;12.03;;;2.70;;
7939;SDS011;4015;48.888;9.226;2023-01-10T05:23:24;10.97;;;3.77;;
7939;SDS011;4015;48.888;9.226;2023-01-10T05:25:50;11.47;;;3.20;;
7939;SDS011;4015;48.888;9.226;2023-01-10T05:28:15;5.73;;;2.40;;
7939;SDS011;4015;48.888;9.226;2023-01-10T05:30:40;7.17;;;2.90;;
7939;SDS011;4015;48.888;9.226;2023-01-10T05:33:07;8.07;;;2.87;;
7939;SDS011;4015;48.888;9.226;2023-01-10T05:35:32;11.47;;;3.40;;
7939;SDS011;4015;48.888;9.226;2023-01-10T05:37:58;8.20;;;2.80;;
7939;SDS011;4015;48.888;9.226;2023-01-10T05:40:23;8.93;;;3.10;;
7939;SDS011;4015;48.888;9.226;2023-01-10T05:42:49;10.33;;;2.90;;
7939;SDS011;4015;48.888;9.226;2023-01-10T05:45:14;7.50;;;2.73;;
7939;SDS011;4015;48.888;9.226;2023-01-10T05:47:39;12.03;;;2.87;;
7939;SDS011;4015;48.888;9.226;2023-01-10T05:50:05;10.87;;;3.30;;
7939;SDS011;4015;48.888;9.226;2023-01-10T05:52:30;15.40;;;3.67;;
7939;SDS011;4015;48.888;9.226;2023-01-10T05:54:56;9.80;;;2.97;;
7939;SDS011;4015;48.888;9.226;2023-01-10T05:57:21;10.93;;;3.87;;
7939;SDS011;4015;48.888;9.226;2023-01-10T05:59:48;7.03;;;2.90;;
7939;SDS011;4015;48.888;9.226;2023-01-10T06:02:14;10.57;;;2.93;;
7939;SDS011;4015;48.888;9.226;2023-01-10T06:04:39;6.47;;;2.67;;
7939;SDS011;4015;48.888;9.226;2023-01-10T06:07:04;8.83;;;2.83;;
7939;SDS011;4015;48.888;9.226;2023-01-10T06:09:30;9.33;;;2.93;;
7939;SDS011;4015;48.888;9.226;2023-01-10T06:11:56;10.47;;;3.50;;
7939;SDS011;4015;48.888;9.226;2023-01-10T06:14:21;8.23;;;2.47;;
7939;SDS011;4015;48.888;9.226;2023-01-10T06:16:47;9.27;;;3.03;;
7939;SDS011;4015;48.888;9.226;2023-01-10T06:19:12;10.67;;;2.53;;
7939;SDS011;4015;48.888;9.226;2023-01-10T06:21:38;15.23;;;3.17;;
7939;SDS011;4015;48.888;9.226;2023-01-10T06:24:03;7.47;;;2.80;;
7939;SDS011;4015;48.888;9.226;2023-01-10T06:26:29;8.83;;;2.87;;
7939;SDS011;4015;48.888;9.226;2023-01-10T06:28:54;9.30;;;2.33;;
7939;SDS011;4015;48.888;9.226;2023-01-10T06:31:20;7.47;;;2.77;;
7939;SDS011;4015;48.888;9.226;2023-01-10T06:33:45;7.20;;;2.85;;
7939;SDS011;4015;48.888;9.226;2023-01-10T06:36:13;9.30;;;3.07;;
7939;SDS011;4015;48.888;9.226;2023-01-10T06:38:39;13.50;;;2.73;;
7939;SDS011;4015;48.888;9.226;2023-01-10T06:41:04;9.90;;;3.33;;
7939;SDS011;4015;48.888;9.226;2023-01-10T06:43:41;8.73;;;2.20;;
7939;SDS011;4015;48.888;9.226;2023-01-10T06:46:12;10.23;;;2.50;;
7939;SDS011;4015;48.888;9.226;2023-01-10T06:48:40;9.93;;;2.60;;
7939;SDS011;4015;48.888;9.226;2023-01-10T06:51:07;9.97;;;2.37;;
7939;SDS011;4015;48.888;9.226;2023-01-10T06:53:33;6.27;;;2.57;;
7939;SDS011;4015;48.888;9.226;2023-01-10T06:55:58;8.10;;;2.67;;
7939;SDS011;4015;48.888;9.226;2023-01-10T06:58:24;9.40;;;3.00;;
7939;SDS011;4015;48.888;9.226;2023-01-10T07:00:49;10.37;;;2.13;;
7939;SDS011;4015;48.888;9.226;2023-01-10T07:03:15;15.60;;;7.23;;
7939;SDS011;4015;48.888;9.226;2023-01-10T07:05:40;9.73;;;3.00;;
7939;SDS011;4015;48.888;9.226;2023-01-10T07:08:06;11.73;;;2.50;;
7939;SDS011;4015;48.888;9.226;2023-01-10T07:10:32;9.03;;;2.43;;
7939;SDS011;4015;48.888;9.226;2023-01-10T07:12:57;10.57;;;2.60;;
7939;SDS011;4015;48.888;9.226;2023-01-10T07:15:24;11.50;;;2.60;;
7939;SDS011;4015;48.888;9.226;2023-01-10T07:17:50;5.63;;;2.43;;
7939;SDS011;4015;48.888;9.226;2023-01-10T07:20:16;9.93;;;2.43;;
7939;SDS011;4015;48.888;9.226;2023-01-10T07:22:41;9.97;;;3.37;;
7939;SDS011;4015;48.888;9.226;2023-01-10T07:25:07;15.10;;;6.53;;
7939;SDS011;4015;48.888;9.226;2023-01-10T07:27:32;11.80;;;3.13;;
7939;SDS011;4015;48.888;9.226;2023-01-10T07:29:58;15.37;;;3.23;;
7939;SDS011;4015;48.888;9.226;2023-01-10T07:32:24;9.70;;;3.20;;
7939;SDS011;4015;48.888;9.226;2023-01-10T07:34:49;15.20;;;3.10;;
7939;SDS011;4015;48.888;9.226;2023-01-10T07:37:15;5.27;;;2.30;;
7939;SDS011;4015;48.888;9.226;2023-01-10T07:39:40;9.30;;;2.30;;
7939;SDS011;4015;48.888;9.226;2023-01-10T07:42:07;6.63;;;2.40;;
7939;SDS011;4015;48.888;9.226;2023-01-10T07:44:33;10.60;;;2.53;;
7939;SDS011;4015;48.888;9.226;2023-01-10T07:46:58;11.50;;;2.80;;
7939;SDS011;4015;48.888;9.226;2023-01-10T07:49:24;6.33;;;1.83;;
7939;SDS011;4015;48.888;9.226;2023-01-10T07:51:49;9.57;;;2.93;;
7939;SDS011;4015;48.888;9.226;2023-01-10T07:54:14;12.33;;;2.93;;
7939;SDS011;4015;48.888;9.226;2023-01-10T07:56:40;11.23;;;3.27;;
7939;SDS011;4015;48.888;9.226;2023-01-10T07:59:05;10.37;;;3.13;;
7939;SDS011;4015;48.888;9.226;2023-01-10T08:01:30;10.27;;;3.20;;
7939;SDS011;4015;48.888;9.226;2023-01-10T08:03:56;11.53;;;3.23;;
7939;SDS011;4015;48.888;9.226;2023-01-10T08:06:22;7.33;;;2.80;;
7939;SDS011;4015;48.888;9.226;2023-01-10T08:08:47;10.37;;;3.13;;
7939;SDS011;4015;48.888;9.226;2023-01-10T08:11:13;10.93;;;2.83;;
7939;SDS011;4015;48.888;9.226;2023-01-10T08:13:38;10.83;;;3.33;;
7939;SDS011;4015;48.888;9.226;2023-01-10T08:16:04;8.50;;;2.80;;
7939;SDS011;4015;48.888;9.226;2023-01-10T08:18:30;11.43;;;3.13;;
7939;SDS011;4015;48.888;9.226;2023-01-10T08:20:56;10.50;;;2.63;;
7939;SDS011;4015;48.888;9.226;2023-01-10T08:23:22;8.10;;;2.50;;
7939;SDS011;4015;48.888;9.226;2023-01-10T08:25:47;10.43;;;3.27;;
7939;SDS011;4015;48.888;9.226;2023-01-10T08:28:13;11.73;;;3.03;;
7939;SDS011;4015;48.888;9.226;2023-01-10T08:30:39;7.80;;;2.80;;
7939;SDS011;4015;48.888;9.226;2023-01-10T08:33:05;14.37;;;3.63;;
7939;SDS011;4015;48.888;9.226;2023-01-10T08:35:38;10.57;;;3.50;;
7939;SDS011;4015;48.888;9.226;2023-01-10T08:38:07;9.27;;;2.80;;
7939;SDS011;4015;48.888;9.226;2023-01-10T08:40:33;9.67;;;3.10;;
7939;SDS011;4015;48.888;9.226;2023-01-10T08:42:59;11.17;;;3.00;;
7939;SDS011;4015;48.888;9.226;2023-01-10T08:45:26;8.53;;;3.10;;
7939;SDS011;4015;48.888;9.226;2023-01-10T08:47:52;11.57;;;2.87;;
7939;SDS011;4015;48.888;9.226;2023-01-10T08:50:17;7.60;;;2.67;;
7939;SDS011;4015;48.888;9.226;2023-01-10T08:52:43;11.53;;;3.13;;
7939;SDS011;4015;48.888;9.226;2023-01-10T08:55:08;6.90;;;3.00;;
7939;SDS011;4015;48.888;9.226;2023-01-10T08:57:34;10.00;;;3.13;;
7939;SDS011;4015;48.888;9.226;2023-01-10T08:59:59;14.53;;;3.57;;
7939;SDS011;4015;48.888;9.226;2023-01-10T09:02:24;12.13;;;3.07;;
7939;SDS011;4015;48.888;9.226;2023-01-10T09:04:50;13.73;;;3.60;;
7939;SDS011;4015;48.888;9.226;2023-01-10T09:07:15;6.93;;;3.20;;
7939;SDS011;4015;48.888;9.226;2023-01-10T09:09:40;6.90;;;2.40;;
7939;SDS011;4015;48.888;9.226;2023-01-10T09:12:06;7.13;;;3.07;;
7939;SDS011;4015;48.888;9.226;2023-01-10T09:14:51;14.90;;;3.20;;
7939;SDS011;4015;48.888;9.226;2023-01-10T09:17:16;14.53;;;3.70;;
7939;SDS011;4015;48.888;9.226;2023-01-10T09:19:42;8.87;;;3.03;;
7939;SDS011;4015;48.888;9.226;2023-01-10T09:22:07;10.60;;;3.03;;
7939;SDS011;4015;48.888;9.226;2023-01-10T09:24:33;15.43;;;3.20;;
7939;SDS011;4015;48.888;9.226;2023-01-10T09:26:59;8.10;;;2.37;;
7939;SDS011;4015;48.888;9.226;2023-01-10T09:29:25;13.67;;;3.53;;
7939;SDS011;4015;48.888;9.226;2023-01-10T09:31:50;6.40;;;3.57;;
7939;SDS011;4015;48.888;9.226;2023-01-10T09:34:15;12.93;;;3.43;;
7939;SDS011;4015;48.888;9.226;2023-01-10T09:36:40;9.40;;;3.23;;
7939;SDS011;4015;48.888;9.226;2023-01-10T09:39:06;13.60;;;3.33;;
7939;SDS011;4015;48.888;9.226;2023-01-10T09:41:50;8.87;;;3.00;;
7939;SDS011;4015;48.888;9.226;2023-01-10T09:52:32;10.70;;;2.33;;
7939;SDS011;4015;48.888;9.226;2023-01-10T09:55:14;10.53;;;3.50;;
7939;SDS011;4015;48.888;9.226;2023-01-10T09:57:44;9.10;;;2.20;;
7939;SDS011;4015;48.888;9.226;2023-01-10T10:00:20;6.63;;;2.80;;
7939;SDS011;4015;48.888;9.226;2023-01-10T10:02:50;6.93;;;2.73;;
7939;SDS011;4015;48.888;9.226;2023-01-10T10:05:26;7.13;;;2.47;;
7939;SDS011;4015;48.888;9.226;2023-01-10T10:07:56;5.67;;;2.33;;
7939;SDS011;4015;48.888;9.226;2023-01-10T10:18:54;7.07;;;2.03;;
7939;SDS011;4015;48.888;9.226;2023-01-10T10:21:22;6.60;;;2.23;;
7939;SDS011;4015;48.888;9.226;2023-01-10T10:26:58;7.70;;;2.23;;
7939;SDS011;4015;48.888;9.226;2023-01-10T10:34:59;9.30;;;2.47;;
7939;SDS011;4015;48.888;9.226;2023-01-10T10:37:47;6.73;;;2.07;;
7939;SDS011;4015;48.888;9.226;2023-01-10T10:40:24;9.80;;;2.87;;
7939;SDS011;4015;48.888;9.226;2023-01-10T10:42:56;4.97;;;2.20;;
7939;SDS011;4015;48.888;9.226;2023-01-10T10:45:35;6.93;;;2.23;;
7939;SDS011;4015;48.888;9.226;2023-01-10T10:48:20;5.70;;;2.07;;
7939;SDS011;4015;48.888;9.226;2023-01-10T10:50:50;7.23;;;2.37;;
7939;SDS011;4015;48.888;9.226;2023-01-10T10:53:44;3.67;;;1.73;;
7939;SDS011;4015;48.888;9.226;2023-01-10T10:56:12;2.23;;;1.70;;
7939;SDS011;4015;48.888;9.226;2023-01-10T10:58:41;6.10;;;2.20;;
7939;SDS011;4015;48.888;9.226;2023-01-10T11:01:12;7.80;;;2.40;;
7939;SDS011;4015;48.888;9.226;2023-01-10T11:03:49;5.07;;;2.27;;
7939;SDS011;4015;48.888;9.226;2023-01-10T11:06:18;5.97;;;2.77;;
7939;SDS011;4015;48.888;9.226;2023-01-10T11:08:46;7.23;;;2.20;;
7939;SDS011;4015;48.888;9.226;2023-01-10T11:11:24;4.80;;;1.80;;
7939;SDS011;4015;48.888;9.226;2023-01-10T11:13:59;5.40;;;2.10;;
7939;SDS011;4015;48.888;9.226;2023-01-10T11:16:30;5.90;;;1.87;;
7939;SDS011;4015;48.888;9.226;2023-01-10T11:24:22;5.13;;;1.93;;
7939;SDS011;4015;48.888;9.226;2023-01-10T11:26:50;7.20;;;2.50;;
7939;SDS011;4015;48.888;9.226;2023-01-10T11:29:17;7.07;;;2.37;;
7939;SDS011;4015;48.888;9.226;2023-01-10T11:31:52;4.53;;;2.33;;
7939;SDS011;4015;48.888;9.226;2023-01-10T11:34:23;5.40;;;2.00;;
7939;SDS011;4015;48.888;9.226;2023-01-10T11:36:57;4.90;;;1.50;;
7939;SDS011;4015;48.888;9.226;2023-01-10T11:39:24;4.63;;;2.00;;
7939;SDS011;4015;48.888;9.226;2023-01-10T11:41:51;5.33;;;1.90;;
7939;SDS011;4015;48.888;9.226;2023-01-10T11:44:26;6.17;;;2.20;;
7939;SDS011;4015;48.888;9.226;2023-01-10T11:46:54;6.73;;;2.23;;
7939;SDS011;4015;48.888;9.226;2023-01-10T11:49:26;4.50;;;1.77;;
7939;SDS011;4015;48.888;9.226;2023-01-10T11:51:59;4.80;;;1.87;;
7939;SDS011;4015;48.888;9.226;2023-01-10T11:54:39;8.97;;;2.03;;
7939;SDS011;4015;48.888;9.226;2023-01-10T11:59:51;12.20;;;3.83;;
7939;SDS011;4015;48.888;9.226;2023-01-10T12:04:49;4.20;;;1.90;;
7939;SDS011;4015;48.888;9.226;2023-01-10T12:07:16;6.30;;;1.80;;
7939;SDS011;4015;48.888;9.226;2023-01-10T12:09:53;7.77;;;1.83;;
7939;SDS011;4015;48.888;9.226;2023-01-10T12:14:55;7.03;;;2.20;;
7939;SDS011;4015;48.888;9.226;2023-01-10T12:17:26;8.67;;;2.37;;
7939;SDS011;4015;48.888;9.226;2023-01-10T12:19:54;5.80;;;2.07;;
7939;SDS011;4015;48.888;9.226;2023-01-10T12:22:26;9.53;;;2.60;;
7939;SDS011;4015;48.888;9.226;2023-01-10T12:24:57;7.77;;;2.40;;
7939;SDS011;4015;48.888;9.226;2023-01-10T12:27:24;8.90;;;2.17;;
7939;SDS011;4015;48.888;9.226;2023-01-10T12:29:56;7.20;;;2.00;;
7939;SDS011;4015;48.888;9.226;2023-01-10T12:32:29;5.63;;;2.20;;
7939;SDS011;4015;48.888;9.226;2023-01-10T12:35:03;7.13;;;2.70;;
7939;SDS011;4015;48.888;9.226;2023-01-10T12:45:46;5.07;;;1.70;;
7939;SDS011;4015;48.888;9.226;2023-01-10T12:48:21;4.73;;;1.70;;
7939;SDS011;4015;48.888;9.226;2023-01-10T12:50:57;3.97;;;1.73;;
7939;SDS011;4015;48.888;9.226;2023-01-10T12:53:33;8.47;;;2.57;;
7939;SDS011;4015;48.888;9.226;2023-01-10T12:56:04;7.20;;;2.40;;
7939;SDS011;4015;48.888;9.226;2023-01-10T13:00:59;8.50;;;2.20;;
7939;SDS011;4015;48.888;9.226;2023-01-10T13:03:29;5.93;;;2.17;;
7939;SDS011;4015;48.888;9.226;2023-01-10T13:05:56;9.27;;;2.03;;
7939;SDS011;4015;48.888;9.226;2023-01-10T13:08:24;13.63;;;3.40;;
7939;SDS011;4015;48.888;9.226;2023-01-10T13:10:52;7.67;;;2.27;;
7939;SDS011;4015;48.888;9.226;2023-01-10T13:19:21;8.23;;;2.47;;
7939;SDS011;4015;48.888;9.226;2023-01-10T13:21:48;7.93;;;2.10;;
7939;SDS011;4015;48.888;9.226;2023-01-10T13:24:19;8.07;;;1.73;;
7939;SDS011;4015;48.888;9.226;2023-01-10T13:26:49;5.03;;;1.70;;
7939;SDS011;4015;48.888;9.226;2023-01-10T13:29:17;9.53;;;2.57;;
7939;SDS011;4015;48.888;9.226;2023-01-10T13:31:45;10.17;;;2.50;;
7939;SDS011;4015;48.888;9.226;2023-01-10T13:34:11;8.37;;;2.10;;
7939;SDS011;4015;48.888;9.226;2023-01-10T13:36:39;5.07;;;1.63;;
7939;SDS011;4015;48.888;9.226;2023-01-10T13:39:18;6.80;;;1.97;;
7939;SDS011;4015;48.888;9.226;2023-01-10T14:08:36;3.07;;;1.33;;
7939;SDS011;4015;48.888;9.226;2023-01-10T14:11:04;6.07;;;1.73;;
7939;SDS011;4015;48.888;9.226;2023-01-10T14:13:44;5.40;;;1.70;;
7939;SDS011;4015;48.888;9.226;2023-01-10T14:21:54;7.90;;;1.87;;
7939;SDS011;4015;48.888;9.226;2023-01-10T14:24:26;5.13;;;1.63;;
7939;SDS011;4015;48.888;9.226;2023-01-10T14:26:57;3.27;;;1.63;;
7939;SDS011;4015;48.888;9.226;2023-01-10T14:29:26;2.93;;;1.20;;
7939;SDS011;4015;48.888;9.226;2023-01-10T14:31:55;5.60;;;1.90;;
7939;SDS011;4015;48.888;9.226;2023-01-10T14:34:26;6.40;;;1.60;;
7939;SDS011;4015;48.888;9.226;2023-01-10T14:39:25;4.37;;;2.07;;
7939;SDS011;4015;48.888;9.226;2023-01-10T14:41:53;3.87;;;1.43;;
7939;SDS011;4015;48.888;9.226;2023-01-10T14:44:37;8.53;;;1.73;;
7939;SDS011;4015;48.888;9.226;2023-01-10T14:49:53;7.23;;;2.23;;
7939;SDS011;4015;48.888;9.226;2023-01-10T14:52:24;5.90;;;1.60;;
7939;SDS011;4015;48.888;9.226;2023-01-10T14:54:54;6.87;;;1.90;;
7939;SDS011;4015;48.888;9.226;2023-01-10T14:57:27;3.57;;;1.83;;
7939;SDS011;4015;48.888;9.226;2023-01-10T15:00:00;6.40;;;2.00;;
7939;SDS011;4015;48.888;9.226;2023-01-10T15:02:32;5.03;;;1.63;;
7939;SDS011;4015;48.888;9.226;2023-01-10T15:04:58;6.13;;;1.93;;
7939;SDS011;4015;48.888;9.226;2023-01-10T15:07:26;5.03;;;1.57;;
7939;SDS011;4015;48.888;9.226;2023-01-10T15:09:55;4.10;;;1.43;;
7939;SDS011;4015;48.888;9.226;2023-01-10T15:12:26;5.33;;;1.60;;
7939;SDS011;4015;48.888;9.226;2023-01-10T15:15:15;4.80;;;2.27;;
7939;SDS011;4015;48.888;9.226;2023-01-10T15:17:42;3.97;;;1.57;;
7939;SDS011;4015;48.888;9.226;2023-01-10T15:20:13;8.73;;;1.80;;
7939;SDS011;4015;48.888;9.226;2023-01-10T15:22:40;6.80;;;2.20;;
7939;SDS011;4015;48.888;9.226;2023-01-10T15:27:46;6.27;;;1.87;;
7939;SDS011;4015;48.888;9.226;2023-01-10T15:30:20;7.40;;;1.77;;
7939;SDS011;4015;48.888;9.226;2023-01-10T15:32:49;6.03;;;1.70;;
7939;SDS011;4015;48.888;9.226;2023-01-10T15:35:17;5.17;;;2.43;;
7939;SDS011;4015;48.888;9.226;2023-01-10T15:37:48;6.63;;;2.17;;
7939;SDS011;4015;48.888;9.226;2023-01-10T15:40:21;4.40;;;1.67;;
7939;SDS011;4015;48.888;9.226;2023-01-10T15:42:48;6.57;;;1.70;;
7939;SDS011;4015;48.888;9.226;2023-01-10T15:45:29;4.33;;;1.60;;
7939;SDS011;4015;48.888;9.226;2023-01-10T15:48:01;4.57;;;2.03;;
7939;SDS011;4015;48.888;9.226;2023-01-10T15:50:31;5.70;;;2.23;;
7939;SDS011;4015;48.888;9.226;2023-01-10T15:53:07;9.73;;;1.90;;
7939;SDS011;4015;48.888;9.226;2023-01-10T15:55:44;5.20;;;2.03;;
7939;SDS011;4015;48.888;9.226;2023-01-10T16:00:44;4.10;;;1.97;;
7939;SDS011;4015;48.888;9.226;2023-01-10T16:03:44;9.27;;;1.90;;
7939;SDS011;4015;48.888;9.226;2023-01-10T16:06:16;2.83;;;1.60;;
7939;SDS011;4015;48.888;9.226;2023-01-10T16:08:49;10.77;;;1.80;;
7939;SDS011;4015;48.888;9.226;2023-01-10T16:14:10;4.83;;;1.67;;
7939;SDS011;4015;48.888;9.226;2023-01-10T16:16:35;7.43;;;1.77;;
7939;SDS011;4015;48.888;9.226;2023-01-10T16:19:01;4.63;;;1.67;;
7939;SDS011;4015;48.888;9.226;2023-01-10T16:21:28;3.97;;;1.40;;
7939;SDS011;4015;48.888;9.226;2023-01-10T16:23:58;4.37;;;1.70;;
7939;SDS011;4015;48.888;9.226;2023-01-10T16:26:24;4.07;;;1.60;;
7939;SDS011;4015;48.888;9.226;2023-01-10T16:28:49;3.87;;;1.77;;
7939;SDS011;4015;48.888;9.226;2023-01-10T16:31:15;4.87;;;1.80;;
7939;SDS011;4015;48.888;9.226;2023-01-10T16:33:40;6.13;;;1.80;;
7939;SDS011;4015;48.888;9.226;2023-01-10T16:36:11;10.10;;;5.73;;
7939;SDS011;4015;48.888;9.226;2023-01-10T16:38:39;4.90;;;2.20;;
7939;SDS011;4015;48.888;9.226;2023-01-10T16:41:04;5.90;;;2.03;;
7939;SDS011;4015;48.888;9.226;2023-01-10T16:43:53;5.77;;;2.73;;
7939;SDS011;4015;48.888;9.226;2023-01-10T16:46:19;5.93;;;2.00;;
7939;SDS011;4015;48.888;9.226;2023-01-10T16:48:44;8.60;;;2.00;;
7939;SDS011;4015;48.888;9.226;2023-01-10T16:53:50;5.50;;;2.00;;
7939;SDS011;4015;48.888;9.226;2023-01-10T16:56:17;7.80;;;2.43;;
7939;SDS011;4015;48.888;9.226;2023-01-10T16:58:51;4.10;;;1.80;;
7939;SDS011;4015;48.888;9.226;2023-01-10T17:01:20;4.60;;;1.90;;
7939;SDS011;4015;48.888;9.226;2023-01-10T17:03:52;6.17;;;2.33;;
7939;SDS011;4015;48.888;9.226;2023-01-10T17:06:18;6.23;;;2.27;;
7939;SDS011;4015;48.888;9.226;2023-01-10T17:08:43;3.23;;;1.90;;
7939;SDS011;4015;48.888;9.226;2023-01-10T17:11:10;6.57;;;2.40;;
7939;SDS011;4015;48.888;9.226;2023-01-10T17:13:41;6.80;;;2.23;;
7939;SDS011;4015;48.888;9.226;2023-01-10T17:16:08;4.70;;;2.10;;
7939;SDS011;4015;48.888;9.226;2023-01-10T17:18:33;6.40;;;2.50;;
7939;SDS011;4015;48.888;9.226;2023-01-10T17:20:58;9.77;;;3.30;;
7939;SDS011;4015;48.888;9.226;2023-01-10T17:23:24;4.30;;;2.40;;
7939;SDS011;4015;48.888;9.226;2023-01-10T17:25:57;7.60;;;2.57;;
7939;SDS011;4015;48.888;9.226;2023-01-10T17:28:24;6.53;;;2.70;;
7939;SDS011;4015;48.888;9.226;2023-01-10T17:30:49;5.83;;;2.33;;
7939;SDS011;4015;48.888;9.226;2023-01-10T17:33:15;6.03;;;2.40;;
7939;SDS011;4015;48.888;9.226;2023-01-10T17:35:41;7.30;;;2.90;;
7939;SDS011;4015;48.888;9.226;2023-01-10T17:38:11;5.07;;;2.17;;
7939;SDS011;4015;48.888;9.226;2023-01-10T17:40:39;6.43;;;2.37;;
7939;SDS011;4015;48.888;9.226;2023-01-10T17:43:05;6.83;;;2.00;;
7939;SDS011;4015;48.888;9.226;2023-01-10T17:45:31;11.80;;;2.50;;
7939;SDS011;4015;48.888;9.226;2023-01-10T17:47:56;18.43;;;11.67;;
7939;SDS011;4015;48.888;9.226;2023-01-10T17:50:22;15.23;;;6.40;;
7939;SDS011;4015;48.888;9.226;2023-01-10T17:52:47;8.27;;;2.47;;